createdAt,value
2022-08-04T00:01:31.357Z,24.90
2022-08-04T00:04:14.493Z,24.90
2022-08-04T00:07:03.905Z,24.90
2022-08-04T00:09:44.502Z,24.80
2022-08-04T00:12:15.977Z,25.30
2022-08-04T00:14:50.562Z,26.90
2022-08-04T00:17:25.719Z,25.20
2022-08-04T00:20:00.881Z,25.20
2022-08-04T00:22:31.593Z,24.60
2022-08-04T00:25:02.654Z,24.60
2022-08-04T00:27:30.552Z,26.10
2022-08-04T00:29:59.908Z,24.50
2022-08-04T00:32:33.659Z,24.50
2022-08-04T00:35:02.299Z,24.50
2022-08-04T00:37:29.335Z,24.40
2022-08-04T00:39:57.471Z,25.80
2022-08-04T00:43:03.872Z,24.30
2022-08-04T00:46:15.853Z,24.30
2022-08-04T00:49:19.285Z,24.30
2022-08-04T00:52:41.150Z,24.30
2022-08-04T00:55:59.627Z,24.20
2022-08-04T00:58:59.924Z,24.20
2022-08-04T01:02:07.830Z,24.10
2022-08-04T01:05:09.043Z,24.10
2022-08-04T01:08:16.606Z,24.10
2022-08-04T01:11:30.098Z,24.10
2022-08-04T01:14:23.010Z,24.10
2022-08-04T01:17:01.649Z,24.00
2022-08-04T01:19:49.549Z,24.00
2022-08-04T01:22:34.174Z,24.00
2022-08-04T01:25:43.310Z,23.90
2022-08-04T01:28:47.683Z,23.90
2022-08-04T01:31:30.385Z,23.80
2022-08-04T01:34:04.986Z,23.10
2022-08-04T01:36:37.559Z,24.50
2022-08-04T01:39:27.704Z,25.40
2022-08-04T01:41:58.643Z,23.70
2022-08-04T01:44:29.698Z,24.20
2022-08-04T01:46:58.231Z,25.60
2022-08-04T01:49:40.661Z,25.40
2022-08-04T01:52:10.323Z,23.70
2022-08-04T01:54:43.130Z,23.60
2022-08-04T01:57:37.853Z,23.60
2022-08-04T02:00:00.897Z,23.60
2022-08-04T02:02:28.032Z,23.60
2022-08-04T02:04:55.795Z,23.50
2022-08-04T02:07:42.941Z,25.00
2022-08-04T02:10:21.504Z,23.40
2022-08-04T02:13:06.321Z,23.40
2022-08-04T02:16:24.808Z,23.40
2022-08-04T02:19:26.936Z,23.30
2022-08-04T02:22:15.954Z,23.30
2022-08-04T02:25:04.876Z,23.20
2022-08-04T02:28:00.160Z,23.20
2022-08-04T02:31:02.790Z,23.00
2022-08-04T02:33:42.015Z,23.00
2022-08-04T02:36:21.058Z,22.90
2022-08-04T02:38:58.684Z,22.90
2022-08-04T02:41:28.891Z,22.80
2022-08-04T02:44:00.676Z,22.80
2022-08-04T02:46:29.353Z,22.70
2022-08-04T02:48:57.444Z,22.70
2022-08-04T02:51:30.579Z,24.50
2022-08-04T02:54:00.230Z,23.40
2022-08-04T02:56:31.437Z,23.40
2022-08-04T02:59:09.665Z,23.90
2022-08-04T03:01:37.327Z,24.00
2022-08-04T03:04:54.677Z,22.70
2022-08-04T03:08:07.256Z,23.00
2022-08-04T03:11:12.712Z,22.80
2022-08-04T03:14:16.592Z,22.80
2022-08-04T03:17:27.677Z,22.80
2022-08-04T03:20:30.187Z,22.80
2022-08-04T03:23:33.643Z,22.80
2022-08-04T03:26:25.181Z,22.80
2022-08-04T03:29:35.817Z,22.80
2022-08-04T03:32:21.750Z,22.90
2022-08-04T03:35:41.306Z,22.80
2022-08-04T03:38:32.819Z,22.80
2022-08-04T03:41:51.586Z,22.90
2022-08-04T03:44:57.608Z,22.90
2022-08-04T03:48:01.096Z,22.90
2022-08-04T03:51:32.539Z,22.90
2022-08-04T03:54:31.614Z,22.90
2022-08-04T03:57:37.720Z,22.90
2022-08-04T04:00:22.235Z,22.90
2022-08-04T04:02:54.924Z,22.80
2022-08-04T04:06:00.071Z,22.80
2022-08-04T04:09:15.115Z,22.90
2022-08-04T04:12:24.839Z,22.80
2022-08-04T04:15:20.901Z,22.80
2022-08-04T04:18:18.543Z,22.80
2022-08-04T04:21:29.289Z,22.80
2022-08-04T04:24:02.870Z,22.80
2022-08-04T04:26:49.178Z,22.80
2022-08-04T04:29:56.136Z,22.80
2022-08-04T04:32:53.678Z,22.90
2022-08-04T04:35:23.378Z,25.00
2022-08-04T04:38:26.905Z,22.90
2022-08-04T04:41:37.276Z,22.90
2022-08-04T04:44:52.032Z,22.90
2022-08-04T04:48:08.489Z,22.90
2022-08-04T04:51:12.143Z,23.00
2022-08-04T04:54:19.931Z,23.00
2022-08-04T04:57:11.573Z,23.10
2022-08-04T04:59:52.300Z,23.20
2022-08-04T05:03:00.444Z,23.50
2022-08-04T05:06:15.358Z,23.30
2022-08-04T05:09:11.440Z,23.40
2022-08-04T05:11:59.657Z,23.50
2022-08-04T05:14:44.855Z,23.60
2022-08-04T05:17:33.813Z,25.20
2022-08-04T05:20:18.496Z,23.70
2022-08-04T05:22:59.419Z,25.70
2022-08-04T05:25:40.869Z,23.80
2022-08-04T05:28:24.751Z,23.90
2022-08-04T05:31:00.311Z,24.00
2022-08-04T05:33:39.643Z,26.00
2022-08-04T05:36:19.059Z,24.10
2022-08-04T05:38:59.664Z,25.70
2022-08-04T05:41:44.800Z,25.00
2022-08-04T05:44:16.654Z,24.40
2022-08-04T05:46:54.049Z,26.40
2022-08-04T05:49:24.881Z,24.70
2022-08-04T05:51:55.535Z,25.70
2022-08-04T05:54:24.491Z,24.40
2022-08-04T05:56:56.239Z,25.20
2022-08-04T05:59:28.121Z,25.50
2022-08-04T06:01:59.067Z,25.70
2022-08-04T06:04:46.905Z,26.80
2022-08-04T06:07:14.388Z,26.10
2022-08-04T06:09:42.738Z,26.30
2022-08-04T06:12:18.208Z,27.50
2022-08-04T06:14:50.975Z,26.50
2022-08-04T06:19:57.379Z,26.60
2022-08-04T06:20:22.944Z,28.70
2022-08-04T06:22:57.839Z,26.80
2022-08-04T06:25:32.395Z,26.90
2022-08-04T06:28:03.603Z,27.00
2022-08-04T06:30:32.503Z,27.10
2022-08-04T06:33:04.960Z,27.10
2022-08-04T06:35:34.421Z,28.60
2022-08-04T06:38:02.974Z,27.50
2022-08-04T06:40:34.209Z,28.10
2022-08-04T06:43:07.736Z,28.00
2022-08-04T06:45:39.861Z,29.00
2022-08-04T06:48:08.851Z,28.30
2022-08-04T06:51:25.681Z,28.50
2022-08-04T06:53:26.254Z,28.70
2022-08-04T06:55:56.253Z,28.90
2022-08-04T06:58:24.788Z,29.50
2022-08-04T07:00:54.630Z,29.30
2022-08-04T07:03:22.754Z,29.30
2022-08-04T07:05:51.508Z,29.50
2022-08-04T07:08:20.077Z,29.40
2022-08-04T07:10:47.534Z,29.50
2022-08-04T07:13:15.912Z,30.10
2022-08-04T07:15:46.610Z,29.40
2022-08-04T07:18:13.784Z,29.30
2022-08-04T07:20:46.155Z,29.30
2022-08-04T07:23:17.778Z,30.10
2022-08-04T07:25:59.782Z,29.30
2022-08-04T07:28:40.674Z,29.30
2022-08-04T07:31:16.584Z,29.30
2022-08-04T07:34:17.395Z,30.10
2022-08-04T07:36:56.058Z,29.60
2022-08-04T07:39:28.700Z,31.20
2022-08-04T07:42:01.468Z,29.40
2022-08-04T07:44:33.227Z,29.40
2022-08-04T07:47:03.482Z,29.50
2022-08-04T07:49:52.150Z,29.60
2022-08-04T07:52:18.320Z,29.70
2022-08-04T07:54:46.493Z,29.90
2022-08-04T07:57:20.706Z,30.00
2022-08-04T08:00:00.579Z,30.20
2022-08-04T08:02:29.369Z,30.40
2022-08-04T08:04:57.099Z,30.60
2022-08-04T08:07:24.469Z,31.00
2022-08-04T08:09:51.555Z,30.80
2022-08-04T08:12:36.632Z,30.90
2022-08-04T08:15:10.319Z,31.00
2022-08-04T08:17:57.729Z,31.00
2022-08-04T08:20:29.888Z,31.20
2022-08-04T08:22:58.366Z,31.20
2022-08-04T08:25:25.469Z,31.30
2022-08-04T08:27:56.348Z,31.40
2022-08-04T08:30:32.221Z,33.80
2022-08-04T08:33:08.241Z,31.60
2022-08-04T08:35:53.791Z,31.70
2022-08-04T08:38:49.497Z,31.80
2022-08-04T08:41:45.793Z,31.90
2022-08-04T08:44:41.481Z,32.00
2022-08-04T08:47:20.327Z,32.00
2022-08-04T08:50:15.198Z,32.00
2022-08-04T08:53:23.102Z,32.00
2022-08-04T08:56:31.404Z,32.10
2022-08-04T08:59:30.500Z,32.10
2022-08-04T09:02:42.581Z,32.20
2022-08-04T09:05:34.183Z,32.30
2022-08-04T09:08:31.380Z,32.40
2022-08-04T09:11:13.535Z,32.40
2022-08-04T09:14:20.926Z,32.50
2022-08-04T09:16:56.585Z,32.70
2022-08-04T09:19:37.874Z,32.80
2022-08-04T09:22:34.074Z,33.00
2022-08-04T09:25:12.465Z,33.10
2022-08-04T09:28:06.053Z,33.20
2022-08-04T09:31:03.651Z,33.30
2022-08-04T09:33:44.674Z,33.50
2022-08-04T09:36:37.394Z,33.50
2022-08-04T09:39:44.473Z,33.50
2022-08-04T09:43:00.939Z,33.50
2022-08-04T09:45:51.030Z,33.40
2022-08-04T09:48:39.834Z,33.30
2022-08-04T09:51:25.743Z,33.20
2022-08-04T09:54:45.168Z,33.50
2022-08-04T09:57:31.221Z,32.90
2022-08-04T10:00:09.167Z,32.80
2022-08-04T10:02:52.399Z,32.70
2022-08-04T10:05:49.078Z,32.50
2022-08-04T10:08:35.092Z,32.40
2022-08-04T10:11:21.831Z,32.20
2022-08-04T10:14:32.737Z,31.90
2022-08-04T10:17:11.814Z,31.70
2022-08-04T10:19:42.004Z,31.40
2022-08-04T10:23:09.229Z,31.10
2022-08-04T10:26:08.053Z,30.80
2022-08-04T10:28:49.653Z,30.40
2022-08-04T10:31:27.070Z,30.00
2022-08-04T10:34:20.707Z,29.60
2022-08-04T10:37:04.310Z,28.90
2022-08-04T10:40:25.827Z,28.40
2022-08-04T10:43:29.118Z,27.90
2022-08-04T10:46:09.481Z,27.40
2022-08-04T10:48:51.601Z,27.00
2022-08-04T10:51:58.876Z,26.70
2022-08-04T10:54:43.841Z,26.40
2022-08-04T10:57:46.649Z,27.50
2022-08-04T11:00:24.948Z,26.20
2022-08-04T11:03:05.801Z,26.20
2022-08-04T11:05:48.123Z,26.40
2022-08-04T11:08:34.595Z,26.60
2022-08-04T11:11:56.933Z,26.70
2022-08-04T11:14:39.843Z,26.90
2022-08-04T11:17:26.185Z,27.00
2022-08-04T11:20:43.707Z,27.00
2022-08-04T11:23:15.535Z,27.00
2022-08-04T11:25:58.441Z,28.80
2022-08-04T11:29:03.429Z,27.70
2022-08-04T11:31:49.725Z,27.20
2022-08-04T11:34:27.757Z,27.30
2022-08-04T11:37:17.621Z,27.50
2022-08-04T11:40:09.089Z,27.70
2022-08-04T11:42:52.637Z,28.30
2022-08-04T11:45:37.318Z,28.20
2022-08-04T11:48:36.938Z,28.60
2022-08-04T11:51:07.012Z,29.00
2022-08-04T11:53:38.845Z,29.30
2022-08-04T11:56:13.588Z,30.50
2022-08-04T11:59:01.103Z,30.40
2022-08-04T12:01:27.867Z,30.00
2022-08-04T12:04:28.761Z,30.20
2022-08-04T12:07:30.532Z,30.30
2022-08-04T12:10:42.255Z,30.60
2022-08-04T12:13:31.535Z,30.80
2022-08-04T12:16:22.430Z,31.10
2022-08-04T12:19:03.115Z,31.20
2022-08-04T12:21:43.488Z,31.30
2022-08-04T12:24:44.813Z,31.30
2022-08-04T12:27:26.863Z,31.30
2022-08-04T12:30:58.301Z,31.30
2022-08-04T12:33:20.139Z,31.30
2022-08-04T12:36:12.813Z,31.30
2022-08-04T12:38:52.693Z,31.30
2022-08-04T12:41:27.312Z,31.20
2022-08-04T12:43:55.557Z,31.20
2022-08-04T12:46:24.691Z,31.10
2022-08-04T12:48:52.689Z,31.00
2022-08-04T12:51:55.979Z,30.90
2022-08-04T12:54:10.318Z,31.00
2022-08-04T12:56:40.708Z,32.30
2022-08-04T12:59:12.869Z,31.00
2022-08-04T13:02:07.512Z,31.10
2022-08-04T13:04:39.392Z,32.10
2022-08-04T13:07:15.774Z,31.20
2022-08-04T13:09:43.535Z,31.30
2022-08-04T13:12:32.772Z,31.40
2022-08-04T13:15:17.937Z,31.50
2022-08-04T13:18:00.103Z,31.80
2022-08-04T13:20:34.711Z,32.20
2022-08-04T13:23:14.371Z,32.60
2022-08-04T13:26:45.147Z,32.90
2022-08-04T13:28:34.765Z,33.80
2022-08-04T13:31:07.435Z,33.60
2022-08-04T13:33:39.068Z,33.80
2022-08-04T13:36:09.599Z,33.90
2022-08-04T13:38:49.713Z,34.00
2022-08-04T13:41:19.222Z,34.10
2022-08-04T13:44:18.949Z,34.30
2022-08-04T13:46:51.983Z,34.20
2022-08-04T13:49:37.987Z,34.50
2022-08-04T13:52:11.187Z,34.70
2022-08-04T13:54:46.126Z,35.00
2022-08-04T13:57:23.166Z,35.20
2022-08-04T13:59:57.374Z,35.50
2022-08-04T14:02:58.979Z,35.80
2022-08-04T14:05:35.374Z,36.00
2022-08-04T14:08:28.992Z,36.00
2022-08-04T14:10:59.068Z,36.20
2022-08-04T14:13:41.101Z,36.30
2022-08-04T14:16:19.004Z,36.30
2022-08-04T14:18:47.495Z,36.30
2022-08-04T14:25:46.725Z,36.20
2022-08-04T14:28:46.983Z,36.30
2022-08-04T14:31:27.854Z,36.20
2022-08-04T14:34:03.819Z,36.30
2022-08-04T14:37:13.293Z,36.40
2022-08-04T14:40:07.886Z,36.50
2022-08-04T14:42:55.377Z,36.60
2022-08-04T14:45:54.673Z,36.60
2022-08-04T14:48:22.766Z,36.60
2022-08-04T14:50:51.231Z,36.70
2022-08-04T14:53:33.784Z,36.90
2022-08-04T14:56:01.682Z,37.20
2022-08-04T14:58:38.728Z,37.50
2022-08-04T15:01:12.784Z,37.60
2022-08-04T15:03:50.105Z,37.80
2022-08-04T15:06:23.897Z,37.80
2022-08-04T15:08:53.300Z,37.80
2022-08-04T15:11:22.792Z,37.70
2022-08-04T15:13:55.131Z,37.60
2022-08-04T15:16:25.017Z,37.60
2022-08-04T15:18:54.778Z,39.10
2022-08-04T15:21:30.617Z,37.30
2022-08-04T15:23:58.948Z,37.10
2022-08-04T15:26:36.764Z,36.90
2022-08-04T15:29:20.817Z,36.90
2022-08-04T15:32:04.237Z,36.70
2022-08-04T15:34:52.818Z,36.60
2022-08-04T15:38:03.085Z,36.60
2022-08-04T15:41:12.375Z,36.60
2022-08-04T15:44:28.458Z,36.80
2022-08-04T15:47:04.429Z,37.00
2022-08-04T15:49:31.705Z,36.60
2022-08-04T15:52:04.632Z,37.20
2022-08-04T15:54:42.176Z,37.20
2022-08-04T15:57:10.766Z,36.10
2022-08-04T16:00:06.321Z,37.30
2022-08-04T16:02:43.852Z,37.30
2022-08-04T16:05:18.659Z,37.30
2022-08-04T16:08:00.821Z,37.30
2022-08-04T16:10:30.721Z,36.00
2022-08-04T16:13:10.825Z,36.80
2022-08-04T16:15:43.656Z,36.50
2022-08-04T16:18:26.336Z,36.30
2022-08-04T16:20:57.552Z,36.10
2022-08-04T16:23:59.237Z,35.80
2022-08-04T16:26:36.832Z,35.70
2022-08-04T16:29:40.461Z,35.50
2022-08-04T16:32:11.781Z,35.40
2022-08-04T16:34:59.995Z,35.30
2022-08-04T16:37:40.247Z,35.20
2022-08-04T16:40:38.133Z,35.30
2022-08-04T16:43:17.870Z,35.20
2022-08-04T16:45:46.344Z,35.20
2022-08-04T16:48:16.302Z,35.10
2022-08-04T16:50:57.480Z,35.10
2022-08-04T16:54:03.104Z,35.00
2022-08-04T16:56:35.609Z,34.90
2022-08-04T16:59:11.460Z,34.80
2022-08-04T17:01:47.812Z,34.70
2022-08-04T17:04:15.839Z,34.60
2022-08-04T17:06:48.547Z,36.40
2022-08-04T17:09:19.524Z,34.20
2022-08-04T17:11:48.553Z,34.20
2022-08-04T17:14:29.313Z,34.20
2022-08-04T17:17:02.063Z,34.10
2022-08-04T17:19:29.015Z,34.20
2022-08-04T17:22:06.648Z,34.00
2022-08-04T17:24:38.081Z,33.90
2022-08-04T17:28:08.972Z,33.80
2022-08-04T17:29:54.553Z,33.60
2022-08-04T17:32:23.537Z,33.40
2022-08-04T17:34:55.302Z,33.20
2022-08-04T17:37:39.314Z,33.00
2022-08-04T17:40:22.615Z,32.90
2022-08-04T17:44:05.194Z,32.60
2022-08-04T17:46:35.682Z,32.30
2022-08-04T17:49:20.794Z,32.10
2022-08-04T17:52:05.675Z,31.70
2022-08-04T17:54:40.391Z,31.50
2022-08-04T17:57:23.904Z,31.10
2022-08-04T18:00:00.007Z,30.80
2022-08-04T18:02:35.070Z,30.60
2022-08-04T18:05:07.412Z,30.30
2022-08-04T18:08:45.629Z,30.00
2022-08-04T18:10:51.978Z,29.80
2022-08-04T18:13:27.778Z,29.50
2022-08-04T18:16:06.202Z,29.30
2022-08-04T18:18:41.739Z,29.00
2022-08-04T18:21:16.057Z,29.00
2022-08-04T18:26:32.780Z,28.60
2022-08-04T18:29:00.719Z,28.50
2022-08-04T18:31:31.929Z,28.30
2022-08-04T18:34:14.355Z,28.10
2022-08-04T18:36:55.439Z,28.00
2022-08-04T18:40:25.072Z,29.70
2022-08-04T18:42:15.209Z,27.20
2022-08-04T18:44:52.250Z,27.50
2022-08-04T18:47:23.148Z,27.60
2022-08-04T18:50:58.918Z,27.30
2022-08-04T18:52:45.300Z,27.30
2022-08-04T18:55:57.589Z,27.10
2022-08-04T18:58:07.086Z,26.90
2022-08-04T19:00:35.546Z,26.80
2022-08-04T19:03:04.287Z,27.80
2022-08-04T19:05:41.298Z,26.70
2022-08-04T19:08:32.466Z,27.10
2022-08-04T19:10:59.508Z,28.30
2022-08-04T19:13:30.114Z,26.50
2022-08-04T19:16:02.327Z,26.40
2022-08-04T19:18:31.032Z,26.30
2022-08-04T19:20:59.797Z,26.20
2022-08-04T19:24:30.337Z,28.30
2022-08-04T19:26:28.259Z,26.10
2022-08-04T19:28:55.866Z,26.00
2022-08-04T19:31:28.173Z,26.70
2022-08-04T19:34:04.856Z,25.90
2022-08-04T19:36:33.072Z,27.20
2022-08-04T19:39:09.232Z,26.00
2022-08-04T19:42:06.283Z,26.00
2022-08-04T19:44:25.505Z,27.10
2022-08-04T19:47:00.904Z,25.50
2022-08-04T19:50:03.783Z,25.40
2022-08-04T19:52:33.376Z,25.30
2022-08-04T19:55:09.889Z,25.20
2022-08-04T19:57:46.333Z,25.10
2022-08-04T20:00:17.890Z,25.10
2022-08-04T20:03:01.156Z,25.00
2022-08-04T20:05:52.549Z,25.00
2022-08-04T20:08:15.396Z,24.90
2022-08-04T20:10:51.246Z,25.50
2022-08-04T20:13:22.100Z,24.80
2022-08-04T20:18:54.767Z,25.70
2022-08-04T20:21:36.401Z,25.40
2022-08-04T20:24:37.791Z,25.50
2022-08-04T20:26:59.174Z,24.60
2022-08-04T20:29:40.964Z,25.10
2022-08-04T20:32:10.273Z,24.60
2022-08-04T20:34:40.172Z,24.10
2022-08-04T20:37:10.120Z,25.30
2022-08-04T20:39:37.947Z,25.80
2022-08-04T20:42:05.826Z,23.90
2022-08-04T20:44:33.776Z,23.30
2022-08-04T20:47:01.558Z,23.20
2022-08-04T20:49:35.466Z,23.00
2022-08-04T20:52:13.259Z,23.10
2022-08-04T20:54:48.221Z,22.70
2022-08-04T20:57:16.594Z,22.60
2022-08-04T20:59:50.393Z,22.40
2022-08-04T21:02:27.802Z,22.30
2022-08-04T21:04:55.881Z,23.10
2022-08-04T21:07:24.825Z,22.40
2022-08-04T21:09:52.303Z,21.80
2022-08-04T21:12:27.712Z,21.70
2022-08-04T21:15:01.083Z,21.60
2022-08-04T21:17:58.741Z,23.80
2022-08-04T21:20:27.257Z,22.80
2022-08-04T21:22:54.961Z,21.20
2022-08-04T21:25:22.315Z,21.60
2022-08-04T21:30:52.267Z,22.10
2022-08-04T21:33:24.325Z,23.20
2022-08-04T21:36:11.818Z,23.10
2022-08-04T21:38:39.546Z,20.80
2022-08-04T21:41:09.525Z,20.80
2022-08-04T21:43:43.010Z,22.40
2022-08-04T21:46:11.274Z,21.40
2022-08-04T21:48:39.675Z,20.90
2022-08-04T21:51:57.946Z,22.60
2022-08-04T21:54:17.381Z,21.50
2022-08-04T21:56:50.765Z,21.50
2022-08-04T21:59:23.520Z,22.30
2022-08-04T22:02:00.336Z,21.30
2022-08-04T22:04:28.388Z,21.60
2022-08-04T22:06:55.381Z,22.20
2022-08-04T22:09:22.595Z,22.80
2022-08-04T22:11:51.480Z,20.40
2022-08-04T22:14:27.479Z,20.40
2022-08-04T22:17:01.679Z,20.40
2022-08-04T22:19:49.810Z,22.30
2022-08-04T22:22:25.288Z,20.30
2022-08-04T22:25:13.179Z,21.60
2022-08-04T22:28:00.943Z,20.40
2022-08-04T22:30:33.192Z,20.30
2022-08-04T22:33:08.184Z,21.00
2022-08-04T22:35:48.770Z,20.30
2022-08-04T22:38:28.099Z,20.40
2022-08-04T22:41:17.199Z,20.30
2022-08-04T22:43:46.091Z,21.70
2022-08-04T22:46:30.462Z,20.40
2022-08-04T22:48:57.978Z,20.30
2022-08-04T22:51:26.202Z,20.30
2022-08-04T22:53:54.194Z,20.40
2022-08-04T22:56:38.394Z,20.30
2022-08-04T22:59:10.955Z,20.30
2022-08-04T23:01:59.014Z,20.30
2022-08-04T23:04:28.006Z,20.30
2022-08-04T23:06:54.979Z,20.30
2022-08-04T23:09:27.054Z,20.30
2022-08-04T23:12:24.426Z,20.40
2022-08-04T23:14:52.823Z,20.40
2022-08-04T23:17:20.227Z,22.00
2022-08-04T23:19:58.291Z,21.30
2022-08-04T23:22:42.101Z,20.40
2022-08-04T23:25:16.386Z,20.40
2022-08-04T23:27:51.553Z,20.50
2022-08-04T23:30:29.881Z,21.30
2022-08-04T23:32:58.365Z,21.40
2022-08-04T23:35:25.294Z,20.60
2022-08-04T23:37:57.039Z,22.80
2022-08-04T23:40:32.482Z,20.40
2022-08-04T23:43:17.585Z,20.50
2022-08-04T23:46:05.091Z,20.50
2022-08-04T23:48:36.876Z,20.50
2022-08-04T23:51:15.041Z,20.60
2022-08-04T23:54:09.313Z,20.50
2022-08-04T23:57:02.216Z,21.30
2022-08-04T23:59:51.854Z,20.50
